Flight Track Log - Related Links

Times and Time Zones

All times are in EDT time to prevent confusion due to time zone crossing. See the CTL61 flight status page for this flight to view local times or setup timezone preferences in your user account.

Time Position Orientation Groundspeed Altitude Reporting Facility
EDT Latitude Longitude Course Direction KTS MPH feet Rate Location/Type
Tue 11:25:26 PM 37.3539 -81.2622 343° North 142 163 5,500  Level Indianapolis Center
Tue 11:26:27 PM 37.3914 -81.2769 343° North 145 167 6,000 246 Climbing Indianapolis Center
Tue 11:27:28 PM 37.4369 -81.2953 342° North 170 196 6,000  Level Indianapolis Center
Tue 11:28:29 PM 37.4831 -81.3092 347° North 174 200 6,000 49 Level Indianapolis Center
Tue 11:29:30 PM 37.5386 -81.3308 343° North 177 204 6,100 49 Climbing Indianapolis Center
Tue 11:30:32 PM 37.5847 -81.3478 344° North 178 205 6,100  Level Indianapolis Center
Tue 11:31:33 PM 37.6317 -81.3628 346° North 178 205 6,100  Level Indianapolis Center
Tue 11:32:34 PM 37.6783 -81.3772 346° North 178 205 6,100  Level Indianapolis Center
Tue 11:33:35 PM 37.7342 -81.3944 346° North 176 203 6,100  Level Indianapolis Center
Tue 11:34:36 PM 37.7808 -81.4078 347° North 177 204 6,100  Level Indianapolis Center
Tue 11:35:37 PM 37.8275 -81.4239 345° North 178 205 6,100 -49 Level Indianapolis Center
Tue 11:36:38 PM 37.8819 -81.4397 347° North 185 213 6,000 -49 Descending Indianapolis Center
Tue 11:37:39 PM 37.9322 -81.4550 347° North 186 214 6,000  Level Indianapolis Center
Tue 11:38:40 PM 37.9800 -81.4700 346° North 180 207 6,000 -98 Level Indianapolis Center
Tue 11:39:42 PM 38.0286 -81.4844 347° North 178 205 5,800 -341 Descending Indianapolis Center
Tue 11:40:43 PM 38.0803 -81.5014 346° North 189 217 5,300 -443 Descending Indianapolis Center
Tue 11:41:44 PM 38.1344 -81.5186 346° North 197 227 4,900 -492 Descending Indianapolis Center
Tue 11:42:45 PM 38.1883 -81.5356 346° North 199 229 4,300 -590 Descending Indianapolis Center
Tue 11:43:46 PM 38.2389 -81.5536 344° North 192 221 3,700 -639 Descending Indianapolis Center
Tue 11:44:47 PM 38.2869 -81.5700 345° North 185 213 3,000 -738 Descending Indianapolis Center
Tue 11:45:48 PM 38.3361 -81.5856 346° North 182 209 2,200 -590 Descending Indianapolis Center
Tue 11:46:49 PM 38.3697 -81.5511 39° Northeast 169 194 1,800 -492 Descending Indianapolis Center
Tue 11:47:50 PM 38.3900 -81.5728 320° Northwest 135 155 1,200 -590 Descending Indianapolis Center
Tue 11:49:00 PM 38.3667 -81.5833 218° Southwest  Level FlightAware Approximate

Login

Don't have an account? Register now (free) for customized features, flight alerts, and more!